Time;durP1;ratioP1;P1;durP2;ratioP2;P2;SDS_P1;SDS_P2;PMS_P1;PMS_P2;Temp;Humidity;BMP_temperature;BMP_pressure;BME280_temperature;BME280_humidity;BME280_pressure;Samples;Min_cycle;Max_cycle;Signal;HPM_P1;HPM_P2
2022/12/03 02:45:00;;;;;;;14.38;7.22;;;;;;;4.19;nan;99523.38;6011580;23;20276;-93
2022/12/03 02:47:28;;;;;;;16.80;9.35;;;;;;;4.17;nan;99532.97;6013478;23;20597;-92
2022/12/03 02:50:13;;;;;;;;;;;;;;;;;;;;;
2022/12/03 02:52:46;;;;;;;14.65;9.05;;;;;;;4.18;nan;99532.06;6012463;23;20644;-93
2022/12/03 02:55:16;;;;;;;12.77;8.63;;;;;;;4.17;nan;99534.72;6013155;23;20197;-92
2022/12/03 02:57:50;;;;;;;12.80;8.50;;;;;;;4.15;nan;99529.56;6013273;23;20181;-92
2022/12/03 03:00:23;;;;;;;14.25;8.23;;;;;;;4.18;nan;99542.44;6014575;23;20236;-93
2022/12/03 03:02:49;;;;;;;12.13;8.57;;;;;;;4.17;nan;99545.13;6016567;23;21037;-92
2022/12/03 03:05:19;;;;;;;14.65;9.20;;;;;;;4.14;nan;99540.88;6014597;23;20404;-94
2022/12/03 03:07:45;;;;;;;17.20;8.95;;;;;;;4.15;nan;99537.38;5986157;23;20577;-93
2022/12/03 03:10:15;;;;;;;11.90;9.02;;;;;;;4.19;nan;99538.13;5989831;23;20273;-91
2022/12/03 03:12:50;;;;;;;12.50;8.45;;;;;;;4.21;nan;99541.47;6015525;23;20506;-93
2022/12/03 03:15:18;;;;;;;11.57;8.82;;;;;;;4.25;nan;99544.84;6015599;23;20680;-92
2022/12/03 03:17:44;;;;;;;16.17;9.23;;;;;;;4.27;nan;99541.28;5987311;23;20278;-92
2022/12/03 03:20:14;;;;;;;11.15;8.30;;;;;;;4.27;nan;99545.63;6012628;23;20677;-92
2022/12/03 03:22:41;;;;;;;14.23;9.25;;;;;;;4.27;nan;99543.03;6015992;23;20182;-92
2022/12/03 03:25:14;;;;;;;11.50;7.13;;;;;;;4.28;nan;99539.50;5989591;23;20289;-91
2022/12/03 03:27:40;;;;;;;13.35;9.00;;;;;;;4.30;nan;99542.91;6017151;23;20212;-92
2022/12/03 03:30:07;;;;;;;14.10;6.70;;;;;;;4.30;nan;99535.09;6012920;23;20603;-92
2022/12/03 03:32:36;;;;;;;17.98;9.32;;;;;;;4.29;nan;99529.03;5985785;23;20189;-93
2022/12/03 03:35:08;;;;;;;11.05;7.65;;;;;;;4.27;nan;99525.66;6014292;23;20713;-89
2022/12/03 03:37:35;;;;;;;10.73;7.65;;;;;;;4.24;nan;99520.59;6015074;23;20750;-92
2022/12/03 03:40:10;;;;;;;11.80;7.77;;;;;;;4.17;nan;99513.94;6016797;23;20245;-92
2022/12/03 03:42:41;;;;;;;13.00;8.40;;;;;;;4.14;nan;99509.69;6017563;23;20429;-91
2022/12/03 03:45:08;;;;;;;11.85;7.10;;;;;;;4.14;nan;99527.88;5953558;23;20359;-91
2022/12/03 03:47:34;;;;;;;15.75;9.55;;;;;;;4.13;nan;99525.34;6018062;23;20217;-93
2022/12/03 03:50:00;;;;;;;12.45;7.97;;;;;;;4.10;nan;99521.09;5993687;23;20237;-92
2022/12/03 03:52:26;;;;;;;12.52;6.90;;;;;;;4.06;nan;99516.94;6010068;23;20232;-90
2022/12/03 03:54:52;;;;;;;14.10;7.60;;;;;;;4.03;nan;99519.66;6046238;23;20213;-93
2022/12/03 03:57:17;;;;;;;11.90;7.73;;;;;;;4.01;nan;99524.06;6051149;23;20165;-93
2022/12/03 03:59:43;;;;;;;13.07;8.50;;;;;;;4.02;nan;99519.72;6049183;23;20181;-92
2022/12/03 04:02:18;;;;;;;10.73;8.27;;;;;;;4.00;nan;99514.59;6050049;23;20382;-93
2022/12/03 04:04:48;;;;;;;15.52;10.85;;;;;;;3.99;nan;99507.69;6059375;23;20406;-91
2022/12/03 04:07:15;;;;;;;13.40;9.80;;;;;;;3.97;nan;99502.56;6064681;23;20722;-91
2022/12/03 04:09:53;;;;;;;9.63;7.63;;;;;;;3.99;nan;99505.09;6044483;23;20268;-92
2022/12/03 04:15:04;;;;;;;11.73;8.00;;;;;;;3.99;nan;99494.69;6041991;23;20291;-93
2022/12/03 04:17:32;;;;;;;9.93;7.30;;;;;;;3.95;nan;99493.13;6041904;23;20203;-93
2022/12/03 04:20:00;;;;;;;11.43;7.77;;;;;;;3.91;nan;99492.38;6042496;23;20528;-91
2022/12/03 04:22:49;;;;;;;;;;;;;;;;;;;;;
2022/12/03 04:28:48;;;;;;;11.18;8.45;;;;;;;3.85;nan;99482.22;6020316;23;20185;-92
2022/12/03 04:36:45;;;;;;;12.93;7.25;;;;;;;3.87;nan;99485.63;6043154;23;20190;-93
2022/12/03 04:39:11;;;;;;;15.60;8.23;;;;;;;3.89;nan;99482.94;6043406;23;20188;-92
2022/12/03 04:41:39;;;;;;;10.53;6.87;;;;;;;3.88;nan;99481.25;6043127;23;20192;-93
2022/12/03 04:46:49;;;;;;;14.73;8.88;;;;;;;3.88;nan;99486.47;6042149;23;20916;-92
2022/12/03 04:49:24;;;;;;;14.00;7.97;;;;;;;3.89;nan;99496.81;6042772;23;20309;-92
2022/12/03 04:51:50;;;;;;;10.50;7.90;;;;;;;3.90;nan;99501.09;6018149;23;20768;-93
2022/12/03 04:54:20;;;;;;;13.90;8.90;;;;;;;3.92;nan;99485.44;6043789;23;20197;-95
2022/12/03 04:56:45;;;;;;;13.70;8.73;;;;;;;3.95;nan;99498.31;6041390;23;20203;-92
2022/12/03 04:59:13;;;;;;;14.03;6.90;;;;;;;3.98;nan;99488.66;6043902;23;20169;-92
2022/12/03 05:01:39;;;;;;;14.38;8.55;;;;;;;3.98;nan;99493.84;6044423;23;21064;-92
2022/12/03 05:04:08;;;;;;;11.50;8.40;;;;;;;3.97;nan;99486.97;6037573;23;20268;-93
2022/12/03 05:06:33;;;;;;;14.20;8.50;;;;;;;3.97;nan;99486.13;6043028;23;20537;-92
2022/12/03 05:09:02;;;;;;;13.40;8.97;;;;;;;3.98;nan;99493.00;6043134;23;20181;-93
2022/12/03 05:11:57;;;;;;;13.63;8.93;;;;;;;3.94;nan;99486.22;6045595;23;20181;-92
2022/12/03 05:14:25;;;;;;;12.98;8.80;;;;;;;3.90;nan;99477.69;6033054;23;20808;-93
2022/12/03 05:17:11;;;;;;;11.25;7.85;;;;;;;3.91;nan;99481.13;6043288;23;20169;-91
2022/12/03 05:22:23;;;;;;;14.40;8.18;;;;;;;3.94;nan;99494.00;6044808;23;20165;-92
2022/12/03 05:24:49;;;;;;;14.20;7.93;;;;;;;3.95;nan;99498.31;6041964;23;20176;-92
2022/12/03 05:27:25;;;;;;;13.13;6.90;;;;;;;3.95;nan;99503.53;6043522;23;20196;-92
2022/12/03 05:30:32;;;;;;;12.52;7.15;;;;;;;3.95;nan;99508.72;6044656;23;20820;-92
2022/12/03 05:33:18;;;;;;;;;;;;;;;;;;;;;
2022/12/03 05:36:02;;;;;;;;;;;;;;;;;;;;;
2022/12/03 05:38:33;;;;;;;12.80;7.97;;;;;;;4.00;nan;99514.59;6036758;23;20324;-92
2022/12/03 05:44:15;;;;;;;14.30;9.02;;;;;;;4.05;nan;99514.38;6007489;23;20213;-93
2022/12/03 05:46:58;;;;;;;16.42;10.80;;;;;;;4.04;nan;99513.56;6042341;23;20692;-92
2022/12/03 05:49:42;;;;;;;;;;;;;;;;;;;;;
2022/12/03 05:52:13;;;;;;;26.00;15.50;;;;;;;4.04;nan;99513.56;6044160;23;20211;-92
2022/12/03 05:54:48;;;;;;;17.73;11.50;;;;;;;4.07;nan;99523.81;6045452;23;20317;-90
2022/12/03 05:57:16;;;;;;;23.60;21.07;;;;;;;4.11;nan;99516.78;6041706;23;20181;-89
2022/12/03 05:59:43;;;;;;;16.02;10.38;;;;;;;4.15;nan;99513.13;6036519;23;20818;-90
2022/12/03 06:02:10;;;;;;;19.20;11.70;;;;;;;4.16;nan;99510.50;6041194;23;20185;-90
2022/12/03 06:04:38;;;;;;;14.63;9.23;;;;;;;4.16;nan;99505.28;6040145;23;20243;-90
2022/12/03 06:07:04;;;;;;;13.73;9.27;;;;;;;4.13;nan;99504.53;6038637;23;20232;-91
2022/12/03 06:09:32;;;;;;;10.70;7.72;;;;;;;4.06;nan;99509.16;6039988;23;20188;-89
2022/12/03 06:11:58;;;;;;;12.13;8.03;;;;;;;4.02;nan;99510.16;6036398;23;20170;-91
2022/12/03 06:14:26;;;;;;;14.05;9.25;;;;;;;4.01;nan;99508.47;6040442;23;20182;-90
2022/12/03 06:16:52;;;;;;;12.87;7.47;;;;;;;4.00;nan;99512.00;6040721;23;20173;-89
2022/12/03 06:19:20;;;;;;;13.07;8.03;;;;;;;4.02;nan;99522.31;6039618;23;20516;-90
2022/12/03 06:21:51;;;;;;;10.35;7.20;;;;;;;4.04;nan;99518.75;6036348;23;20684;-90
2022/12/03 06:24:17;;;;;;;12.88;9.05;;;;;;;4.05;nan;99525.66;6040507;23;20188;-89
2022/12/03 06:26:54;;;;;;;12.32;8.10;;;;;;;4.05;nan;99514.38;6036139;23;20191;-90
2022/12/03 06:29:24;;;;;;;10.15;7.50;;;;;;;4.03;nan;99527.47;6039716;23;20825;-90
2022/12/03 06:31:54;;;;;;;13.40;8.07;;;;;;;4.02;nan;99540.50;6040044;23;20212;-90
2022/12/03 06:34:20;;;;;;;14.93;8.13;;;;;;;3.95;nan;99543.34;6033443;23;20189;-90
2022/12/03 06:36:45;;;;;;;14.30;8.98;;;;;;;3.91;nan;99540.91;6035316;23;20252;-90
2022/12/03 06:39:14;;;;;;;13.83;10.57;;;;;;;3.86;nan;99541.09;6036441;23;20628;-90
2022/12/03 06:41:39;;;;;;;17.00;8.95;;;;;;;3.85;nan;99543.75;6036712;23;20185;-89
2022/12/03 06:44:07;;;;;;;11.47;7.80;;;;;;;3.88;nan;99538.44;6038667;23;20597;-89
2022/12/03 06:46:33;;;;;;;12.65;8.52;;;;;;;3.90;nan;99534.03;6039914;23;20173;-90
2022/12/03 06:49:21;;;;;;;13.80;8.00;;;;;;;3.90;nan;99531.44;6037199;23;20506;-90
2022/12/03 06:51:46;;;;;;;12.30;7.30;;;;;;;3.88;nan;99533.22;6040312;23;20183;-89
2022/12/03 06:54:22;;;;;;;12.50;8.63;;;;;;;3.85;nan;99526.41;6038777;23;20191;-89
2022/12/03 06:56:50;;;;;;;15.73;8.95;;;;;;;3.83;nan;99520.41;6039527;23;20181;-90
2022/12/03 06:59:16;;;;;;;15.02;9.65;;;;;;;3.81;nan;99524.84;6037879;23;20180;-90
2022/12/03 07:01:41;;;;;;;13.50;8.23;;;;;;;3.81;nan;99511.84;6032923;23;20187;-90
2022/12/03 07:04:07;;;;;;;13.80;7.80;;;;;;;3.81;nan;99519.63;6039333;23;20188;-89
2022/12/03 07:06:35;;;;;;;13.73;7.88;;;;;;;3.81;nan;99522.22;6039586;23;20181;-90
2022/12/03 07:09:08;;;;;;;12.37;8.27;;;;;;;3.80;nan;99523.13;6037709;23;20203;-90
2022/12/03 07:11:39;;;;;;;13.35;7.70;;;;;;;3.81;nan;99524.84;6038116;23;20403;-90
2022/12/03 07:14:25;;;;;;;21.30;10.25;;;;;;;3.81;nan;99527.44;6035998;23;20345;-90
2022/12/03 07:16:53;;;;;;;14.32;7.68;;;;;;;3.83;nan;99519.56;6037947;23;20216;-90
2022/12/03 07:19:21;;;;;;;11.07;8.25;;;;;;;3.84;nan;99514.31;6041298;23;20181;-90
2022/12/03 07:21:47;;;;;;;15.45;10.70;;;;;;;3.87;nan;99514.19;6033929;23;20453;-90
2022/12/03 07:24:18;;;;;;;12.05;9.23;;;;;;;3.86;nan;99515.13;6038460;23;20184;-91
2022/12/03 07:26:44;;;;;;;14.70;10.37;;;;;;;3.81;nan;99522.22;6037596;23;20177;-91
2022/12/03 07:29:12;;;;;;;11.50;8.93;;;;;;;3.73;nan;99514.72;6040806;23;20185;-90
2022/12/03 07:31:50;;;;;;;19.98;9.00;;;;;;;3.70;nan;99526.94;6036732;23;20445;-90
2022/12/03 07:34:16;;;;;;;11.10;8.95;;;;;;;3.60;nan;99523.88;6040853;23;20187;-90
2022/12/03 07:36:44;;;;;;;15.90;8.23;;;;;;;3.58;nan;99514.44;6043088;23;20177;-90
2022/12/03 07:39:15;;;;;;;18.70;9.32;;;;;;;3.58;nan;99506.63;6039973;23;20554;-91
2022/12/03 07:41:56;;;;;;;10.77;7.10;;;;;;;3.58;nan;99519.63;5974661;23;20462;-90
2022/12/03 07:44:25;;;;;;;14.07;8.03;;;;;;;3.58;nan;99511.84;6038196;23;20215;-90
2022/12/03 07:46:56;;;;;;;13.13;8.73;;;;;;;3.58;nan;99510.09;6039327;23;20165;-90
2022/12/03 07:49:21;;;;;;;19.83;8.52;;;;;;;3.58;nan;99510.09;6040341;23;20196;-89
2022/12/03 07:51:53;;;;;;;10.73;7.13;;;;;;;3.61;nan;99517.75;6038201;23;20192;-91
2022/12/03 07:54:24;;;;;;;14.18;9.32;;;;;;;3.65;nan;99519.34;6037571;23;20200;-90
2022/12/03 07:56:53;;;;;;;16.10;9.50;;;;;;;3.67;nan;99517.56;6034821;23;20407;-90
2022/12/03 07:59:19;;;;;;;15.80;8.88;;;;;;;3.71;nan;99520.88;6038119;23;20193;-90
2022/12/03 08:01:49;;;;;;;10.77;8.07;;;;;;;3.73;nan;99511.28;6038190;23;20243;-88
2022/12/03 08:04:17;;;;;;;14.98;9.20;;;;;;;3.75;nan;99506.84;6039689;23;20208;-90
2022/12/03 08:07:04;;;;;;;15.05;10.38;;;;;;;3.81;nan;99495.38;6038382;23;20172;-91
2022/12/03 08:09:51;;;;;;;12.73;8.35;;;;;;;3.87;nan;99496.00;6039424;23;20552;-89
2022/12/03 08:12:38;;;;;;;13.98;8.38;;;;;;;3.92;nan;99499.28;6036679;23;20161;-90
2022/12/03 08:15:14;;;;;;;13.82;8.02;;;;;;;3.92;nan;99491.50;6034734;23;20196;-90
2022/12/03 08:17:41;;;;;;;13.35;8.57;;;;;;;3.93;nan;99500.13;6034595;23;20184;-90
2022/12/03 08:20:19;;;;;;;12.20;8.23;;;;;;;3.95;nan;99498.31;6036303;23;20232;-90
2022/12/03 08:22:47;;;;;;;10.13;7.68;;;;;;;3.97;nan;99499.97;6038171;23;20192;-90
2022/12/03 08:25:21;;;;;;;12.77;6.85;;;;;;;3.99;nan;99502.47;6039497;23;20976;-90
2022/12/03 08:27:47;;;;;;;10.95;8.00;;;;;;;3.97;nan;99494.75;6041894;23;20572;-90
2022/12/03 08:30:16;;;;;;;16.23;8.07;;;;;;;3.94;nan;99494.88;6041416;23;20187;-91
2022/12/03 08:32:46;;;;;;;11.70;8.23;;;;;;;3.94;nan;99496.59;6041107;23;21002;-90
2022/12/03 08:35:17;;;;;;;10.50;8.38;;;;;;;3.92;nan;99485.44;6040106;23;20197;-89
2022/12/03 08:37:54;;;;;;;16.50;8.63;;;;;;;3.92;nan;99480.25;6035022;23;20199;-89
2022/12/03 08:40:35;;;;;;;14.82;9.30;;;;;;;3.94;nan;99483.63;6036068;23;20183;-90
2022/12/03 08:43:16;;;;;;;14.15;7.88;;;;;;;3.90;nan;99489.84;6038459;23;20208;-89
2022/12/03 08:45:44;;;;;;;9.27;7.18;;;;;;;3.91;nan;99478.53;6039222;23;20189;-91
2022/12/03 08:48:25;;;;;;;12.30;6.97;;;;;;;3.96;nan;99474.84;6043710;23;20177;-90
2022/12/03 08:51:01;;;;;;;13.32;9.05;;;;;;;3.97;nan;99480.94;6018473;23;20617;-90
2022/12/03 08:53:31;;;;;;;13.32;8.02;;;;;;;3.99;nan;99484.28;6043006;23;20576;-90
2022/12/03 08:56:19;;;;;;;10.68;7.57;;;;;;;4.00;nan;99483.41;6039041;23;20739;-91
2022/12/03 08:59:40;;;;;;;16.73;7.75;;;;;;;4.05;nan;99478.00;6041245;23;20184;-89
2022/12/03 09:02:21;;;;;;;11.38;7.28;;;;;;;4.09;nan;99477.84;6025103;23;20548;-89
2022/12/03 09:04:47;;;;;;;15.75;7.57;;;;;;;3.99;nan;99479.09;6036561;23;20173;-90
2022/12/03 09:07:15;;;;;;;9.75;6.28;;;;;;;3.97;nan;99486.13;6039061;23;20188;-89
2022/12/03 09:09:40;;;;;;;10.55;6.63;;;;;;;3.98;nan;99486.03;6043148;23;20236;-91
2022/12/03 09:12:06;;;;;;;10.50;7.90;;;;;;;3.99;nan;99492.09;6045813;23;20181;-90
2022/12/03 09:14:32;;;;;;;12.03;8.20;;;;;;;3.99;nan;99485.13;6047259;23;20707;-91
2022/12/03 09:17:06;;;;;;;11.30;7.30;;;;;;;3.99;nan;99494.69;6046313;23;20181;-90
2022/12/03 09:19:32;;;;;;;10.60;7.22;;;;;;;3.99;nan;99499.88;6039445;23;20703;-90
2022/12/03 09:22:00;;;;;;;12.70;9.23;;;;;;;3.98;nan;99498.19;6036323;23;20205;-89
2022/12/03 09:24:25;;;;;;;11.93;9.25;;;;;;;3.99;nan;99498.13;6039769;23;20188;-89
2022/12/03 09:27:23;;;;;;;;;;;;;;;;;;;;;
2022/12/03 09:29:58;;;;;;;9.18;7.28;;;;;;;4.02;nan;99497.16;6043651;23;20236;-90
2022/12/03 09:32:27;;;;;;;16.80;9.07;;;;;;;4.06;nan;99498.75;6041131;23;20245;-91
2022/12/03 09:35:12;;;;;;;15.35;7.47;;;;;;;4.09;nan;99496.03;5992814;23;20472;-91
2022/12/03 09:37:49;;;;;;;12.43;8.60;;;;;;;4.13;nan;99500.22;5988895;23;20294;-90
2022/12/03 09:40:14;;;;;;;13.48;9.88;;;;;;;4.15;nan;99498.38;5989122;23;20205;-90
2022/12/03 09:42:42;;;;;;;14.40;8.47;;;;;;;4.18;nan;99490.47;6011670;23;20416;-90
2022/12/03 09:45:25;;;;;;;11.73;7.22;;;;;;;4.26;nan;99497.13;5967259;23;20626;-92
2022/12/03 09:47:54;;;;;;;19.10;10.20;;;;;;;4.27;nan;99483.22;5990644;23;20834;-90
2022/12/03 09:50:33;;;;;;;16.80;9.48;;;;;;;4.26;nan;99478.91;6004837;23;20760;-90
2022/12/03 09:53:02;;;;;;;15.23;9.52;;;;;;;4.25;nan;99474.63;6038327;23;20216;-90
2022/12/03 09:55:50;;;;;;;12.98;8.77;;;;;;;4.24;nan;99463.41;6043746;23;20593;-91
2022/12/03 09:58:31;;;;;;;;;;;;;;;;;;;;;
2022/12/03 10:01:13;;;;;;;20.00;9.60;;;;;;;4.24;nan;99462.53;6040437;23;20221;-90
2022/12/03 10:03:44;;;;;;;15.52;10.43;;;;;;;4.21;nan;99463.50;6043603;23;20540;-91
2022/12/03 10:06:17;;;;;;;13.82;10.75;;;;;;;4.20;nan;99451.41;6057654;23;20403;-91
2022/12/03 10:08:52;;;;;;;15.45;10.20;;;;;;;4.21;nan;99451.38;6072400;23;20248;-91
2022/12/03 10:11:29;;;;;;;21.25;11.50;;;;;;;4.19;nan;99449.72;6072293;23;20212;-93
2022/12/03 10:14:05;;;;;;;19.20;9.70;;;;;;;4.20;nan;99441.00;6058291;23;20202;-92
2022/12/03 10:16:35;;;;;;;14.60;8.60;;;;;;;4.24;nan;99450.41;6044185;23;20205;-92
2022/12/03 10:19:04;;;;;;;16.08;10.10;;;;;;;4.28;nan;99448.50;6043609;23;20195;-92
2022/12/03 10:21:37;;;;;;;13.82;9.15;;;;;;;4.32;nan;99455.25;6043546;23;20201;-90
2022/12/03 10:24:33;;;;;;;16.52;10.10;;;;;;;4.33;nan;99451.78;6042429;23;20169;-91
2022/12/03 10:27:19;;;;;;;15.20;9.02;;;;;;;4.32;nan;99450.06;6046865;23;20205;-91
2022/12/03 10:30:03;;;;;;;22.30;11.20;;;;;;;4.28;nan;99438.94;6044013;23;20746;-90
2022/12/03 10:32:41;;;;;;;19.48;8.68;;;;;;;4.27;nan;99434.66;6044614;23;20161;-90
2022/12/03 10:35:20;;;;;;;19.58;9.40;;;;;;;4.30;nan;99442.34;6042837;23;20418;-90
2022/12/03 10:37:58;;;;;;;21.13;10.07;;;;;;;4.34;nan;99430.88;6043750;23;20228;-90
2022/12/03 10:40:37;;;;;;;17.02;9.85;;;;;;;4.36;nan;99425.66;6041414;23;20679;-91
2022/12/03 10:43:15;;;;;;;14.52;9.30;;;;;;;4.36;nan;99423.03;6039043;23;20224;-90
2022/12/03 10:45:48;;;;;;;15.77;8.88;;;;;;;4.34;nan;99428.28;6045608;23;21054;-92
2022/12/03 10:48:30;;;;;;;15.10;8.95;;;;;;;4.35;nan;99414.41;6049318;23;20426;-93
2022/12/03 10:51:08;;;;;;;16.60;8.60;;;;;;;4.39;nan;99421.16;6049143;23;20235;-90
2022/12/03 10:53:35;;;;;;;15.43;7.90;;;;;;;4.43;nan;99411.50;6048838;23;20212;-91
2022/12/03 10:56:06;;;;;;;16.60;10.02;;;;;;;4.47;nan;99412.19;6043788;23;20201;-91
2022/12/03 10:58:40;;;;;;;18.65;10.07;;;;;;;4.51;nan;99414.63;6047424;23;20165;-90
2022/12/03 11:01:24;;;;;;;16.58;9.38;;;;;;;4.51;nan;99409.41;6047472;23;20161;-90
2022/12/03 11:03:50;;;;;;;12.05;7.53;;;;;;;4.53;nan;99404.97;6046773;23;20181;-90
2022/12/03 11:06:21;;;;;;;10.63;8.80;;;;;;;4.49;nan;99407.78;6043682;23;20613;-90
2022/12/03 11:08:52;;;;;;;17.08;8.50;;;;;;;4.31;nan;99397.22;6043809;23;20177;-91
2022/12/03 11:11:24;;;;;;;18.13;10.13;;;;;;;4.16;nan;99392.66;6043749;23;20185;-90
2022/12/03 11:13:52;;;;;;;13.77;8.52;;;;;;;4.10;nan;99383.34;6040271;23;20188;-91
2022/12/03 11:16:40;;;;;;;12.05;8.40;;;;;;;4.16;nan;99390.91;6044523;23;20224;-90
2022/12/03 11:19:11;;;;;;;14.98;8.05;;;;;;;4.15;nan;99388.38;6046123;23;20185;-92
2022/12/03 11:22:14;;;;;;;12.50;8.10;;;;;;;4.17;nan;99389.16;6044996;23;20478;-92
2022/12/03 11:24:39;;;;;;;17.23;10.98;;;;;;;4.13;nan;99383.25;6047967;23;20165;-92
2022/12/03 11:27:10;;;;;;;16.47;8.63;;;;;;;4.16;nan;99383.13;6048420;23;20185;-91
2022/12/03 11:29:43;;;;;;;16.00;9.07;;;;;;;4.22;nan;99380.25;6045515;23;20169;-91
2022/12/03 11:32:09;;;;;;;10.90;9.02;;;;;;;4.27;nan;99374.03;6052559;23;20283;-92
2022/12/03 11:34:34;;;;;;;18.90;11.70;;;;;;;4.33;nan;99369.41;6047270;23;20481;-91
2022/12/03 11:37:09;;;;;;;13.20;8.77;;;;;;;4.37;nan;99364.91;6047985;23;20409;-91
2022/12/03 11:39:46;;;;;;;16.42;10.25;;;;;;;4.39;nan;99363.09;6052377;23;20177;-92
2022/12/03 11:42:27;;;;;;;14.48;10.18;;;;;;;4.46;nan;99372.34;6043498;23;20180;-92
2022/12/03 11:46:00;;;;;;;15.13;9.52;;;;;;;4.52;nan;99364.28;6048012;23;20172;-91
2022/12/03 11:48:29;;;;;;;15.45;9.55;;;;;;;4.61;nan;99358.66;6017932;23;20212;-92
2022/12/03 11:51:02;;;;;;;24.80;12.20;;;;;;;4.66;nan;99358.47;6019015;23;20600;-91
2022/12/03 11:53:31;;;;;;;25.63;14.25;;;;;;;4.73;nan;99351.25;6027956;23;20208;-92
2022/12/03 11:56:07;;;;;;;31.45;13.85;;;;;;;4.76;nan;99348.53;6003334;23;20202;-91
2022/12/03 11:58:57;;;;;;;23.30;11.18;;;;;;;4.81;nan;99347.41;6010511;23;20501;-92
2022/12/03 12:02:05;;;;;;;17.40;10.10;;;;;;;4.86;nan;99339.38;6045477;23;20188;-90
2022/12/03 12:04:41;;;;;;;19.10;11.27;;;;;;;4.87;nan;99336.72;6032147;23;20227;-90
2022/12/03 12:07:10;;;;;;;23.70;12.00;;;;;;;4.92;nan;99333.06;6046095;23;20184;-90
2022/12/03 12:09:57;;;;;;;18.70;11.40;;;;;;;4.96;nan;99327.66;6045731;23;20172;-91
2022/12/03 12:12:29;;;;;;;17.88;10.75;;;;;;;4.96;nan;99325.03;6045387;23;20653;-91
2022/12/03 12:14:55;;;;;;;19.85;11.48;;;;;;;4.97;nan;99323.28;6045775;23;20212;-91
2022/12/03 12:17:50;;;;;;;20.63;12.90;;;;;;;5.00;nan;99323.16;6041838;23;20188;-91
2022/12/03 12:20:26;;;;;;;17.13;9.25;;;;;;;5.00;nan;99317.97;6044305;23;20256;-92
2022/12/03 12:23:38;;;;;;;17.33;9.95;;;;;;;5.00;nan;99321.41;6042293;23;20184;-91
2022/12/03 12:26:09;;;;;;;18.17;9.95;;;;;;;5.02;nan;99327.38;6046153;23;20618;-91
2022/12/03 12:28:40;;;;;;;17.15;10.45;;;;;;;5.05;nan;99310.75;6046440;23;20240;-91
2022/12/03 12:33:57;;;;;;;17.58;11.15;;;;;;;5.01;nan;99309.22;6047412;23;20173;-92
2022/12/03 12:36:23;;;;;;;19.07;9.90;;;;;;;5.00;nan;99311.00;6048906;23;20212;-90
2022/12/03 12:38:49;;;;;;;22.05;11.43;;;;;;;5.06;nan;99300.28;6045405;23;20232;-90
2022/12/03 12:41:17;;;;;;;17.23;10.80;;;;;;;5.09;nan;99297.53;6046799;23;20208;-91
2022/12/03 12:43:50;;;;;;;18.23;10.55;;;;;;;5.12;nan;99306.13;6047123;23;20236;-90
2022/12/03 12:46:24;;;;;;;14.32;9.68;;;;;;;5.12;nan;99298.31;6047043;23;20172;-91
2022/12/03 12:48:50;;;;;;;20.02;10.55;;;;;;;5.15;nan;99295.56;6048178;23;20204;-92
2022/12/03 12:51:18;;;;;;;16.07;10.43;;;;;;;5.13;nan;99289.59;6048949;23;20215;-91
2022/12/03 12:53:44;;;;;;;15.70;11.02;;;;;;;5.14;nan;99293.91;6051040;23;20180;-92
2022/12/03 12:59:27;;;;;;;;;;;;;;;;;;;;;
2022/12/03 13:02:00;;;;;;;18.55;11.45;;;;;;;5.18;nan;99272.00;6051028;23;20598;-91
2022/12/03 13:04:29;;;;;;;21.15;13.38;;;;;;;5.24;nan;99262.16;6047267;23;20462;-92
2022/12/03 13:07:18;;;;;;;20.05;12.48;;;;;;;5.20;nan;99265.78;6049966;23;20237;-91
2022/12/03 13:09:53;;;;;;;16.95;11.98;;;;;;;5.09;nan;99263.69;6045563;23;20169;-89
2022/12/03 13:12:23;;;;;;;13.25;10.25;;;;;;;5.12;nan;99254.91;6046331;23;20181;-91
2022/12/03 13:14:56;;;;;;;17.60;11.40;;;;;;;5.17;nan;99262.50;6042706;23;20205;-90
2022/12/03 13:17:23;;;;;;;18.33;10.65;;;;;;;5.18;nan;99264.19;6048554;23;20181;-90
2022/12/03 13:19:54;;;;;;;15.90;10.52;;;;;;;5.21;nan;99262.28;6044126;23;20909;-90
2022/12/03 13:22:29;;;;;;;27.38;13.43;;;;;;;5.16;nan;99266.00;6045850;23;20370;-92
2022/12/03 13:25:38;;;;;;;22.80;12.05;;;;;;;5.12;nan;99272.28;6041059;23;20219;-87
2022/12/03 13:28:06;;;;;;;16.05;10.57;;;;;;;5.11;nan;99268.84;6004636;23;20188;-86
2022/12/03 13:30:32;;;;;;;20.05;12.38;;;;;;;5.13;nan;99261.81;6041715;23;20188;-86
2022/12/03 13:33:07;;;;;;;17.17;11.55;;;;;;;5.17;nan;99263.34;6035897;23;20197;-87
2022/12/03 13:35:35;;;;;;;25.38;14.20;;;;;;;5.22;nan;99265.75;6037499;23;20193;-87
2022/12/03 13:38:34;;;;;;;22.65;12.75;;;;;;;5.25;nan;99265.59;6019714;23;20196;-92
2022/12/03 13:44:20;;;;;;;17.08;12.52;;;;;;;5.26;nan;99256.84;6043225;23;20208;-91
2022/12/03 13:46:49;;;;;;;14.40;11.23;;;;;;;5.24;nan;99245.69;6041937;23;20204;-89
2022/12/03 13:49:30;;;;;;;;;;;;;;;;;;;;;
2022/12/03 13:52:16;;;;;;;23.55;11.45;;;;;;;5.24;nan;99254.34;6043423;23;20569;-91
2022/12/03 13:54:55;;;;;;;18.15;10.30;;;;;;;5.22;nan;99245.75;6046827;23;20177;-90
2022/12/03 13:57:41;;;;;;;;;;;;;;;;;;;;;
2022/12/03 14:00:30;;;;;;;;;;;;;;;;;;;;;
2022/12/03 14:03:16;;;;;;;;;;;;;;;;;;;;;
2022/12/03 14:06:42;;;;;;;;;;;;;;;;;;;;;
2022/12/03 14:09:41;;;;;;;;;;;;;;;;;;;;;
2022/12/03 14:12:35;;;;;;;;;;;;;;;;;;;;;
